TimeEST,TemperatureF,Dew PointF,Humidity,Sea Level PressureIn,VisibilityMPH,Wind Direction,Wind SpeedMPH,Gust SpeedMPH,PrecipitationIn,Events,Conditions,WindDirDegrees,DateUTC
12:15 AM,29.3,28.9,99,29.97,10.0,Calm,Calm,-,N/A,,Clear,0,2014-01-15 05:15:00
12:35 AM,29.1,28.6,98,29.97,10.0,Calm,Calm,-,N/A,,Clear,0,2014-01-15 05:35:00
12:55 AM,28.4,28.2,99,29.97,10.0,WNW,5.8,-,N/A,,Clear,300,2014-01-15 05:55:00
1:15 AM,29.7,29.1,98,29.97,10.0,Calm,Calm,-,N/A,,Clear,0,2014-01-15 06:15:00
1:35 AM,27.7,27.3,99,29.96,10.0,Calm,Calm,-,N/A,,Clear,0,2014-01-15 06:35:00
1:55 AM,27.7,27.5,99,29.97,10.0,Calm,Calm,-,N/A,,Clear,0,2014-01-15 06:55:00
2:15 AM,28.4,28.2,99,29.97,10.0,Calm,Calm,-,N/A,,Clear,0,2014-01-15 07:15:00
2:35 AM,27.1,26.6,98,29.97,10.0,Calm,Calm,-,N/A,,Clear,0,2014-01-15 07:35:00
2:55 AM,27.0,26.6,99,29.96,10.0,Calm,Calm,-,N/A,,Clear,0,2014-01-15 07:55:00
3:15 AM,28.4,28.0,99,29.96,10.0,Calm,Calm,-,N/A,,Clear,0,2014-01-15 08:15:00
3:35 AM,27.0,26.4,98,29.96,10.0,Calm,Calm,-,N/A,,Clear,0,2014-01-15 08:35:00
3:55 AM,28.4,28.2,99,29.95,10.0,Calm,Calm,-,N/A,,Clear,0,2014-01-15 08:55:00
4:15 AM,27.0,26.4,98,29.95,10.0,Calm,Calm,-,N/A,,Clear,0,2014-01-15 09:15:00
4:35 AM,27.0,26.6,99,29.95,10.0,Calm,Calm,-,N/A,,Clear,0,2014-01-15 09:35:00
4:55 AM,28.4,28.0,99,29.95,10.0,NNW,3.5,-,N/A,,Clear,330,2014-01-15 09:55:00
5:15 AM,27.5,27.3,99,29.95,10.0,Calm,Calm,-,N/A,,Clear,0,2014-01-15 10:15:00
5:35 AM,26.8,26.4,99,29.95,7.0,Calm,Calm,-,N/A,,Clear,0,2014-01-15 10:35:00
5:55 AM,25.7,25.5,99,29.96,10.0,Calm,Calm,-,N/A,,Clear,0,2014-01-15 10:55:00
6:15 AM,24.8,24.4,99,29.96,10.0,Calm,Calm,-,N/A,,Clear,0,2014-01-15 11:15:00
6:35 AM,24.6,24.1,98,29.96,10.0,Calm,Calm,-,N/A,,Clear,0,2014-01-15 11:35:00
6:55 AM,24.4,23.9,98,29.96,10.0,Calm,Calm,-,N/A,,Clear,0,2014-01-15 11:55:00
7:15 AM,26.6,26.2,99,29.96,10.0,WNW,3.5,-,N/A,,Clear,300,2014-01-15 12:15:00
7:35 AM,24.6,24.1,98,29.97,10.0,Calm,Calm,-,N/A,,Clear,0,2014-01-15 12:35:00
7:55 AM,24.6,24.1,98,29.96,10.0,Calm,Calm,-,N/A,,Clear,0,2014-01-15 12:55:00
8:15 AM,27.5,27.1,99,29.97,10.0,Calm,Calm,-,N/A,,Mostly Cloudy,0,2014-01-15 13:15:00
8:35 AM,30.6,30.0,98,29.97,10.0,Calm,Calm,-,N/A,,Overcast,0,2014-01-15 13:35:00
8:55 AM,32.0,30.9,96,29.98,10.0,Calm,Calm,-,N/A,,Overcast,0,2014-01-15 13:55:00
9:15 AM,31.8,30.2,94,29.99,10.0,Calm,Calm,-,N/A,,Mostly Cloudy,0,2014-01-15 14:15:00
9:35 AM,34.2,31.1,89,29.98,10.0,Calm,Calm,-,N/A,,Scattered Clouds,0,2014-01-15 14:35:00
9:55 AM,38.1,32.0,79,29.98,10.0,Calm,Calm,-,N/A,,Mostly Cloudy,0,2014-01-15 14:55:00
10:15 AM,39.9,30.7,70,29.98,10.0,Calm,Calm,-,N/A,,Mostly Cloudy,0,2014-01-15 15:15:00
10:35 AM,43.0,31.6,64,29.97,10.0,Calm,Calm,-,N/A,,Mostly Cloudy,0,2014-01-15 15:35:00
10:55 AM,46.0,32.5,59,29.96,10.0,Calm,Calm,-,N/A,,Scattered Clouds,0,2014-01-15 15:55:00
11:15 AM,46.4,32.4,58,29.96,10.0,WNW,3.5,-,N/A,,Scattered Clouds,300,2014-01-15 16:15:00
11:35 AM,47.1,32.2,56,29.95,10.0,Calm,Calm,-,N/A,,Scattered Clouds,0,2014-01-15 16:35:00
11:55 AM,48.4,32.7,55,29.94,10.0,WNW,3.5,-,N/A,,Mostly Cloudy,300,2014-01-15 16:55:00
12:15 PM,48.9,32.7,54,29.93,10.0,SW,5.8,-,N/A,,Mostly Cloudy,230,2014-01-15 17:15:00
12:35 PM,49.8,32.4,51,29.91,10.0,West,6.9,-,N/A,,Mostly Cloudy,260,2014-01-15 17:35:00
12:55 PM,50.2,32.7,51,29.90,10.0,West,4.6,-,N/A,,Mostly Cloudy,260,2014-01-15 17:55:00
1:15 PM,49.1,32.2,52,29.90,10.0,West,9.2,16.1,N/A,,Overcast,280,2014-01-15 18:15:00
1:35 PM,46.9,32.0,56,29.91,10.0,West,11.5,17.3,N/A,,Overcast,280,2014-01-15 18:35:00
1:55 PM,45.7,31.8,58,29.91,10.0,WNW,11.5,18.4,N/A,,Overcast,290,2014-01-15 18:55:00
2:15 PM,43.0,32.9,68,29.93,10.0,NW,12.7,-,N/A,,Light Drizzle,310,2014-01-15 19:15:00
2:35 PM,41.5,34.0,75,29.93,10.0,NNW,6.9,-,N/A,Rain,Light Rain,330,2014-01-15 19:35:00
2:55 PM,39.9,33.1,77,29.93,10.0,NW,6.9,-,N/A,Rain,Rain,320,2014-01-15 19:55:00
3:15 PM,40.3,32.0,72,29.93,10.0,NW,3.5,-,N/A,,Overcast,310,2014-01-15 20:15:00
3:35 PM,40.6,32.0,71,29.92,10.0,Calm,Calm,-,N/A,,Overcast,0,2014-01-15 20:35:00
3:55 PM,41.0,32.5,72,29.93,10.0,Calm,Calm,-,N/A,,Overcast,0,2014-01-15 20:55:00
4:15 PM,41.2,33.1,73,29.93,10.0,Calm,Calm,-,N/A,,Overcast,0,2014-01-15 21:15:00
4:35 PM,41.0,32.7,72,29.93,10.0,Calm,Calm,-,N/A,,Overcast,0,2014-01-15 21:35:00
4:55 PM,40.3,32.4,73,29.93,10.0,Calm,Calm,-,N/A,,Overcast,0,2014-01-15 21:55:00
5:15 PM,40.3,32.0,72,29.93,10.0,Calm,Calm,-,N/A,,Mostly Cloudy,0,2014-01-15 22:15:00
5:35 PM,39.9,32.0,73,29.93,10.0,Calm,Calm,-,N/A,,Mostly Cloudy,0,2014-01-15 22:35:00
5:55 PM,39.4,31.5,73,29.93,10.0,NNE,3.5,-,N/A,,Overcast,20,2014-01-15 22:55:00
6:15 PM,39.6,30.4,70,29.93,10.0,North,3.5,-,N/A,,Overcast,350,2014-01-15 23:15:00
6:35 PM,39.7,27.0,60,29.94,10.0,NNW,4.6,-,N/A,,Overcast,340,2014-01-15 23:35:00
6:55 PM,39.0,25.2,58,29.95,10.0,NNW,4.6,-,N/A,,Mostly Cloudy,330,2014-01-15 23:55:00
7:15 PM,38.7,23.4,54,29.95,10.0,NNW,4.6,-,N/A,,Scattered Clouds,330,2014-01-16 00:15:00
7:35 PM,37.9,23.0,55,29.96,10.0,NNW,3.5,-,N/A,,Mostly Cloudy,330,2014-01-16 00:35:00
7:55 PM,36.5,22.3,56,29.96,10.0,NNW,4.6,-,N/A,,Scattered Clouds,330,2014-01-16 00:55:00
8:15 PM,37.4,21.2,52,29.96,10.0,NW,4.6,-,N/A,,Clear,310,2014-01-16 01:15:00
8:35 PM,34.7,21.7,59,29.97,10.0,Calm,Calm,-,N/A,,Clear,0,2014-01-16 01:35:00
8:55 PM,36.3,21.9,56,29.97,10.0,NW,4.6,-,N/A,,Clear,310,2014-01-16 01:55:00
9:15 PM,36.3,22.6,58,29.98,10.0,WNW,8.1,-,N/A,,Clear,300,2014-01-16 02:15:00
9:35 PM,36.5,22.5,57,29.98,10.0,WNW,6.9,-,N/A,,Clear,300,2014-01-16 02:35:00
9:55 PM,35.4,22.6,60,29.99,10.0,NW,6.9,-,N/A,,Clear,310,2014-01-16 02:55:00
10:15 PM,34.7,22.6,61,29.99,10.0,WNW,3.5,-,N/A,,Clear,290,2014-01-16 03:15:00
10:35 PM,33.6,22.6,64,29.98,10.0,Calm,Calm,-,N/A,,Clear,0,2014-01-16 03:35:00
10:55 PM,28.0,23.0,81,29.98,10.0,North,3.5,-,N/A,,Clear,360,2014-01-16 03:55:00
11:15 PM,30.4,22.8,73,29.98,10.0,Calm,Calm,-,N/A,,Clear,0,2014-01-16 04:15:00
11:35 PM,29.5,24.1,80,29.98,10.0,NW,5.8,-,N/A,,Clear,310,2014-01-16 04:35:00
11:55 PM,31.8,21.9,67,29.98,10.0,NW,3.5,-,N/A,,Clear,320,2014-01-16 04:55:00